Time;durP1;ratioP1;P1;durP2;ratioP2;P2;SDS_P1;SDS_P2;PMS_P1;PMS_P2;Temp;Humidity;BMP_temperature;BMP_pressure;BME280_temperature;BME280_humidity;BME280_pressure;Samples;Min_cycle;Max_cycle;Signal;HPM_P1;HPM_P2
2023/04/15 00:02:17;;;;;;;1.77;1.10;;;21.20;65.50;;;;;;5197926;22;20019;-68
2023/04/15 00:04:39;;;;;;;3.15;1.00;;;21.20;65.50;;;;;;5198840;22;20023;-70
2023/04/15 00:07:02;;;;;;;3.17;1.27;;;21.30;65.40;;;;;;5196136;22;20016;-68
2023/04/15 00:09:24;;;;;;;3.28;1.08;;;21.30;65.40;;;;;;5193823;22;20496;-67
2023/04/15 00:11:46;;;;;;;3.00;0.80;;;21.30;65.40;;;;;;5195742;22;20221;-67
2023/04/15 00:14:09;;;;;;;1.52;0.80;;;21.40;65.40;;;;;;5196128;22;20007;-71
2023/04/15 00:16:31;;;;;;;1.38;0.95;;;21.40;65.20;;;;;;5199393;22;20011;-66
2023/04/15 00:18:54;;;;;;;2.20;0.98;;;21.40;65.20;;;;;;5197152;22;20105;-68
2023/04/15 00:21:16;;;;;;;0.85;0.80;;;21.50;65.20;;;;;;5182808;22;20078;-67
2023/04/15 00:23:39;;;;;;;1.80;0.80;;;21.50;65.20;;;;;;5196318;22;20359;-66
2023/04/15 00:26:01;;;;;;;1.42;0.95;;;21.50;65.10;;;;;;5195281;22;20015;-69
2023/04/15 00:28:24;;;;;;;2.55;0.63;;;21.50;65.00;;;;;;5195556;22;20328;-68
2023/04/15 00:30:46;;;;;;;1.70;0.80;;;21.50;65.10;;;;;;5196183;22;20055;-67
2023/04/15 00:33:17;;;;;;;3.58;1.42;;;21.50;64.90;;;;;;5194824;22;20008;-75
2023/04/15 00:35:42;;;;;;;3.37;1.40;;;21.50;64.20;;;;;;5167690;22;20019;-76
2023/04/15 00:38:12;;;;;;;3.33;1.13;;;21.50;64.30;;;;;;5195900;22;20016;-75
2023/04/15 00:40:37;;;;;;;1.65;0.98;;;21.50;64.00;;;;;;5196647;22;20011;-76
2023/04/15 00:43:00;;;;;;;2.30;0.82;;;21.50;63.90;;;;;;5166051;22;20021;-74
2023/04/15 00:45:32;;;;;;;2.15;1.20;;;21.50;63.70;;;;;;5167678;22;20015;-77
2023/04/15 00:48:17;;;;;;;2.10;1.42;;;21.50;63.50;;;;;;5166426;22;20091;-78
2023/04/15 00:50:41;;;;;;;3.17;1.30;;;21.50;63.40;;;;;;5192714;22;20089;-77
2023/04/15 00:53:06;;;;;;;4.45;1.20;;;21.50;65.20;;;;;;5161929;22;20020;-83
2023/04/15 00:55:32;;;;;;;2.47;0.90;;;21.50;65.40;;;;;;5164792;22;20456;-78
2023/04/15 00:58:04;;;;;;;1.42;0.80;;;21.50;65.20;;;;;;5199353;22;20023;-78
2023/04/15 01:00:30;;;;;;;2.63;1.52;;;21.50;64.70;;;;;;5165741;22;20012;-73
2023/04/15 01:03:00;;;;;;;10.90;1.83;;;21.50;65.00;;;;;;5193672;22;20011;-78
2023/04/15 01:05:26;;;;;;;7.55;1.55;;;21.60;65.40;;;;;;5166289;22;20103;-74
2023/04/15 01:07:49;;;;;;;47.88;5.28;;;21.60;65.60;;;;;;5195665;22;20039;-77
2023/04/15 01:16:44;;;;;;;22.70;3.80;;;21.70;66.30;;;;;;5189741;22;20047;-68
2023/04/15 01:19:10;;;;;;;;;;;21.80;66.10;;;;;;5161328;22;20024;-61
2023/04/15 01:21:32;;;;;;;14.98;2.53;;;21.80;66.10;;;;;;5194120;22;19914;-65
2023/04/15 01:23:56;;;;;;;8.45;1.83;;;21.80;66.00;;;;;;5197409;22;20082;-61
2023/04/15 01:26:20;;;;;;;11.30;1.55;;;21.80;65.50;;;;;;5193429;22;20058;-69
2023/04/15 01:28:43;;;;;;;13.57;1.80;;;21.80;65.00;;;;;;5196626;22;20004;-69
2023/04/15 01:31:15;;;;;;;7.22;1.33;;;21.80;65.00;;;;;;5198273;22;20357;-70
2023/04/15 01:33:38;;;;;;;6.70;1.30;;;21.80;65.00;;;;;;5194234;22;20012;-72
2023/04/15 01:36:01;;;;;;;3.53;1.55;;;21.80;64.80;;;;;;5192169;22;20011;-73
2023/04/15 01:38:25;;;;;;;4.93;1.45;;;21.90;64.70;;;;;;5160400;22;20081;-62
2023/04/15 01:40:47;;;;;;;3.28;1.00;;;21.90;64.40;;;;;;5191988;22;20049;-63
2023/04/15 01:43:10;;;;;;;2.80;0.93;;;21.90;64.10;;;;;;5184680;22;20480;-62
2023/04/15 01:45:32;;;;;;;6.93;1.38;;;21.90;64.10;;;;;;5192207;22;20080;-62
2023/04/15 01:47:54;;;;;;;4.03;1.15;;;21.90;64.00;;;;;;5194747;22;20227;-63
2023/04/15 01:50:17;;;;;;;3.22;1.00;;;21.90;63.80;;;;;;5194173;22;20064;-63
2023/04/15 01:52:40;;;;;;;5.53;1.17;;;21.90;63.70;;;;;;5193294;22;20046;-65
2023/04/15 01:55:03;;;;;;;4.25;0.75;;;21.90;63.70;;;;;;5193665;22;20007;-65
2023/04/15 01:57:25;;;;;;;1.35;0.70;;;21.90;63.50;;;;;;5193854;22;20020;-64
2023/04/15 01:59:48;;;;;;;1.20;0.70;;;21.90;63.30;;;;;;5194387;22;20008;-63
2023/04/15 02:02:11;;;;;;;2.13;0.80;;;21.90;63.20;;;;;;5193237;22;20016;-64
2023/04/15 02:04:33;;;;;;;3.13;0.93;;;21.90;63.10;;;;;;5185093;22;20043;-63
2023/04/15 02:06:56;;;;;;;1.20;0.88;;;21.90;63.00;;;;;;5167311;22;20012;-63
2023/04/15 02:09:18;;;;;;;2.28;1.10;;;21.90;62.90;;;;;;5198360;22;20015;-63
2023/04/15 02:11:41;;;;;;;2.60;1.05;;;21.90;62.70;;;;;;5196984;22;20019;-64
2023/04/15 02:14:05;;;;;;;1.77;0.90;;;21.90;62.60;;;;;;5165111;22;20012;-67
2023/04/15 02:16:27;;;;;;;2.00;1.05;;;21.90;62.40;;;;;;5188720;22;20020;-65
2023/04/15 02:18:50;;;;;;;1.63;0.82;;;21.90;62.40;;;;;;5200080;22;20015;-64
2023/04/15 02:21:13;;;;;;;2.92;1.10;;;21.90;62.10;;;;;;5198306;22;20357;-65
2023/04/15 02:23:36;;;;;;;2.10;0.90;;;21.90;62.00;;;;;;5197143;22;20023;-64
2023/04/15 02:25:58;;;;;;;2.58;0.77;;;21.90;62.00;;;;;;5198451;22;20105;-63
2023/04/15 02:28:21;;;;;;;0.85;0.65;;;21.90;61.90;;;;;;5197729;22;20027;-65
2023/04/15 02:30:51;;;;;;;2.13;1.08;;;21.90;61.70;;;;;;5198866;22;20043;-66
2023/04/15 02:33:14;;;;;;;1.00;0.70;;;21.90;61.70;;;;;;5198203;22;20016;-63
2023/04/15 02:35:40;;;;;;;1.55;1.00;;;21.90;61.60;;;;;;5198131;22;20504;-64
2023/04/15 02:38:03;;;;;;;1.90;0.88;;;21.90;61.40;;;;;;5184283;22;20019;-65
2023/04/15 02:40:25;;;;;;;2.47;1.00;;;22.00;61.30;;;;;;5200032;22;20012;-64
2023/04/15 02:42:48;;;;;;;2.15;1.08;;;22.00;61.20;;;;;;5196847;22;20030;-63
2023/04/15 02:45:11;;;;;;;3.85;1.35;;;22.00;61.10;;;;;;5198610;22;20027;-64
2023/04/15 02:47:39;;;;;;;1.08;0.77;;;22.00;61.00;;;;;;5196091;22;20453;-65
2023/04/15 02:50:03;;;;;;;2.72;1.10;;;22.00;60.90;;;;;;5185440;22;20050;-63
2023/04/15 02:52:25;;;;;;;3.00;1.05;;;22.00;60.70;;;;;;5197713;22;20103;-64
2023/04/15 02:54:48;;;;;;;2.63;1.20;;;22.00;60.50;;;;;;5200244;22;20015;-64
2023/04/15 02:57:11;;;;;;;1.73;1.08;;;22.10;60.60;;;;;;5199360;22;20016;-63
2023/04/15 02:59:34;;;;;;;1.33;1.02;;;22.10;60.50;;;;;;5198106;22;20467;-64
2023/04/15 03:01:59;;;;;;;1.88;1.08;;;22.10;60.50;;;;;;5199280;22;20052;-65
2023/04/15 03:04:22;;;;;;;2.03;1.23;;;22.10;60.40;;;;;;5189936;22;20054;-64
2023/04/15 03:06:45;;;;;;;3.00;1.00;;;22.10;60.50;;;;;;5198379;22;20090;-63
2023/04/15 03:09:07;;;;;;;2.20;0.80;;;22.10;60.30;;;;;;5197961;22;20026;-65
2023/04/15 03:11:30;;;;;;;1.65;1.08;;;22.20;60.40;;;;;;5197311;22;20085;-66
2023/04/15 03:13:52;;;;;;;2.03;1.05;;;22.20;60.30;;;;;;5196909;22;20016;-65
2023/04/15 03:16:15;;;;;;;2.25;0.90;;;22.20;60.20;;;;;;5197519;22;20449;-61
2023/04/15 03:18:37;;;;;;;2.47;1.05;;;22.20;60.00;;;;;;5197586;22;20011;-64
2023/04/15 03:21:00;;;;;;;1.95;0.70;;;22.30;60.00;;;;;;5195475;22;20015;-64
2023/04/15 03:23:22;;;;;;;2.10;0.82;;;22.30;59.80;;;;;;5195704;22;20095;-65
2023/04/15 03:25:45;;;;;;;1.90;1.10;;;22.30;59.90;;;;;;5198517;22;20352;-66
2023/04/15 03:28:07;;;;;;;2.05;1.00;;;22.40;59.80;;;;;;5195513;22;20047;-65
2023/04/15 03:30:30;;;;;;;1.40;0.80;;;22.40;59.70;;;;;;5197861;22;20098;-66
2023/04/15 03:32:52;;;;;;;1.77;1.00;;;22.50;59.50;;;;;;5196620;22;20008;-65
2023/04/15 03:35:15;;;;;;;3.67;1.00;;;22.50;59.40;;;;;;5166002;22;20022;-66
2023/04/15 03:37:37;;;;;;;2.08;1.10;;;22.50;59.30;;;;;;5195803;22;20019;-66
2023/04/15 03:40:00;;;;;;;2.35;1.20;;;22.60;59.20;;;;;;5196098;22;20091;-65
2023/04/15 03:42:22;;;;;;;1.75;0.95;;;22.60;59.00;;;;;;5197085;22;20507;-65
2023/04/15 03:44:45;;;;;;;2.72;1.00;;;22.70;58.90;;;;;;5172240;22;20011;-65
2023/04/15 03:47:07;;;;;;;1.98;0.93;;;22.70;59.00;;;;;;5197050;22;20338;-66
2023/04/15 03:49:30;;;;;;;1.38;0.88;;;22.80;59.60;;;;;;5194181;22;20478;-66
2023/04/15 03:51:52;;;;;;;2.15;0.95;;;22.80;58.90;;;;;;5197379;22;20348;-65
2023/04/15 03:54:15;;;;;;;2.50;1.20;;;22.90;58.90;;;;;;5195244;22;20315;-67
2023/04/15 03:56:37;;;;;;;2.47;1.10;;;22.90;58.80;;;;;;5195313;22;20019;-64
2023/04/15 03:59:00;;;;;;;2.33;1.27;;;23.00;58.80;;;;;;5197132;22;20426;-65
2023/04/15 04:01:22;;;;;;;2.40;1.13;;;23.00;58.70;;;;;;5196208;22;20090;-66
2023/04/15 04:03:45;;;;;;;1.50;0.93;;;23.10;58.60;;;;;;5196088;22;20051;-67
2023/04/15 04:06:07;;;;;;;2.13;0.85;;;23.20;58.50;;;;;;5196498;22;20016;-66
2023/04/15 04:08:30;;;;;;;2.25;0.90;;;23.20;58.30;;;;;;5164635;22;20350;-64
2023/04/15 04:10:52;;;;;;;1.13;0.73;;;23.30;58.30;;;;;;5197095;22;20027;-63
2023/04/15 04:13:15;;;;;;;2.50;1.20;;;23.30;58.20;;;;;;5195208;22;20012;-63
2023/04/15 04:15:37;;;;;;;1.50;0.70;;;23.40;58.30;;;;;;5199278;22;20019;-66
2023/04/15 04:18:00;;;;;;;1.40;0.77;;;23.40;58.20;;;;;;5197105;22;20325;-65
2023/04/15 04:20:22;;;;;;;1.90;0.90;;;23.40;58.20;;;;;;5197383;22;20444;-66
2023/04/15 04:22:45;;;;;;;1.70;0.93;;;23.50;58.20;;;;;;5198282;22;20404;-64
2023/04/15 04:25:09;;;;;;;2.25;1.08;;;23.50;58.20;;;;;;5199081;22;20016;-65
2023/04/15 04:27:31;;;;;;;2.92;1.10;;;23.50;58.00;;;;;;5185347;22;20011;-65
2023/04/15 04:29:53;;;;;;;1.63;0.90;;;23.50;58.10;;;;;;5199087;22;20097;-64
2023/04/15 04:32:16;;;;;;;1.48;0.70;;;23.50;58.00;;;;;;5199037;22;20023;-64
2023/04/15 04:34:38;;;;;;;0.80;0.52;;;23.60;58.00;;;;;;5198195;22;20018;-64
2023/04/15 04:37:01;;;;;;;1.02;0.77;;;23.60;58.10;;;;;;5199466;22;20019;-65
2023/04/15 04:39:23;;;;;;;3.03;1.17;;;23.60;58.20;;;;;;5199446;22;20015;-64
2023/04/15 04:41:45;;;;;;;2.35;1.10;;;23.60;58.30;;;;;;5166389;22;20016;-64
2023/04/15 04:44:08;;;;;;;2.55;0.77;;;23.70;58.50;;;;;;5198717;22;20027;-64
2023/04/15 04:46:30;;;;;;;0.90;0.70;;;23.70;58.60;;;;;;5197784;22;20065;-64
2023/04/15 04:48:53;;;;;;;1.52;0.80;;;23.80;58.60;;;;;;5165907;22;20099;-65
2023/04/15 04:51:15;;;;;;;3.70;0.93;;;23.90;58.60;;;;;;5197024;22;20027;-64
2023/04/15 04:53:37;;;;;;;1.88;0.90;;;24.00;58.60;;;;;;5197548;22;20012;-65
2023/04/15 04:56:00;;;;;;;1.80;0.93;;;24.10;58.50;;;;;;5196921;22;20015;-62
2023/04/15 04:58:22;;;;;;;1.23;0.85;;;24.20;58.50;;;;;;5199325;22;20015;-64
2023/04/15 05:00:45;;;;;;;2.42;1.00;;;24.30;58.40;;;;;;5197281;22;20226;-64
2023/04/15 05:03:07;;;;;;;3.75;0.80;;;24.30;58.30;;;;;;5199187;22;20016;-65
2023/04/15 05:05:30;;;;;;;1.20;0.75;;;24.40;58.40;;;;;;5196160;22;20011;-65
2023/04/15 05:07:52;;;;;;;1.40;0.88;;;24.50;58.30;;;;;;5198855;22;20069;-64
2023/04/15 05:10:16;;;;;;;2.92;0.93;;;24.60;58.30;;;;;;5198222;22;20502;-64
2023/04/15 05:12:39;;;;;;;1.38;0.60;;;24.60;58.20;;;;;;5185249;22;20069;-63
2023/04/15 05:15:01;;;;;;;0.80;0.60;;;24.70;58.10;;;;;;5199071;22;20519;-64
2023/04/15 05:17:24;;;;;;;1.85;0.75;;;24.80;58.00;;;;;;5166654;22;20353;-65
2023/04/15 05:19:46;;;;;;;1.77;0.90;;;24.90;58.00;;;;;;5198916;22;20015;-66
2023/04/15 05:22:08;;;;;;;1.42;0.88;;;25.00;57.90;;;;;;5200714;22;20448;-67
2023/04/15 05:24:31;;;;;;;2.15;0.85;;;25.10;57.80;;;;;;5202134;22;20015;-66
2023/04/15 05:26:54;;;;;;;2.55;0.82;;;25.10;57.70;;;;;;5201508;22;20008;-66
2023/04/15 05:29:16;;;;;;;2.40;0.90;;;25.20;57.70;;;;;;5201827;22;20046;-64
2023/04/15 05:31:38;;;;;;;2.05;1.13;;;25.10;57.50;;;;;;5167638;22;20024;-66
2023/04/15 05:34:01;;;;;;;1.92;0.73;;;25.10;57.70;;;;;;5201307;22;20120;-68
2023/04/15 05:36:23;;;;;;;1.40;0.80;;;25.10;57.80;;;;;;5200015;22;20574;-63
2023/04/15 05:38:46;;;;;;;1.70;0.90;;;25.10;58.00;;;;;;5200296;22;20015;-62
2023/04/15 05:41:09;;;;;;;1.38;0.88;;;25.10;58.00;;;;;;5197187;22;20046;-63
2023/04/15 05:43:31;;;;;;;2.03;1.00;;;25.10;58.00;;;;;;5200507;22;20086;-63
2023/04/15 05:45:53;;;;;;;2.45;1.00;;;25.20;58.00;;;;;;5168294;22;20722;-64
2023/04/15 05:48:16;;;;;;;0.85;0.60;;;25.10;57.90;;;;;;5201353;22;20427;-65
2023/04/15 05:50:41;;;;;;;2.05;0.77;;;25.10;58.10;;;;;;5198756;22;20097;-63
2023/04/15 05:53:03;;;;;;;1.63;0.70;;;25.10;58.00;;;;;;5198670;22;20024;-63
2023/04/15 05:55:26;;;;;;;1.05;0.60;;;25.10;58.20;;;;;;5200271;22;20391;-64
2023/04/15 05:57:48;;;;;;;1.00;0.60;;;25.10;58.20;;;;;;5200169;22;20012;-64
2023/04/15 06:00:12;;;;;;;0.82;0.70;;;25.10;58.20;;;;;;5200051;22;20015;-65
2023/04/15 06:02:34;;;;;;;1.30;0.80;;;25.10;58.20;;;;;;5197652;22;20012;-66
2023/04/15 06:04:57;;;;;;;1.67;0.70;;;25.20;58.10;;;;;;5197381;22;20077;-65
2023/04/15 06:07:19;;;;;;;1.25;0.70;;;25.30;58.00;;;;;;5199396;22;20357;-66
2023/04/15 06:09:41;;;;;;;1.17;0.80;;;25.30;57.90;;;;;;5200189;22;20388;-64
2023/04/15 06:12:05;;;;;;;1.63;0.82;;;25.30;57.80;;;;;;5199274;22;20027;-63
2023/04/15 06:14:27;;;;;;;;;;;25.30;57.80;;;;;;5198476;22;20018;-63
2023/04/15 06:16:50;;;;;;;1.38;0.82;;;25.30;57.90;;;;;;5197955;22;20283;-64
2023/04/15 06:19:13;;;;;;;2.72;1.10;;;25.30;57.90;;;;;;5198123;22;20019;-64
2023/04/15 06:21:35;;;;;;;2.40;1.13;;;25.30;57.90;;;;;;5188924;22;20086;-63
2023/04/15 06:24:02;;;;;;;3.20;0.88;;;25.30;57.90;;;;;;5198581;22;20069;-65
2023/04/15 06:26:25;;;;;;;2.72;0.88;;;25.30;57.90;;;;;;5197255;22;20011;-64
2023/04/15 06:28:48;;;;;;;1.45;0.85;;;25.30;57.90;;;;;;5198156;22;20011;-66
2023/04/15 06:31:10;;;;;;;1.52;1.00;;;25.20;57.90;;;;;;5197973;22;20020;-63
2023/04/15 06:33:32;;;;;;;0.60;0.60;;;25.20;58.00;;;;;;5197976;22;20344;-63
2023/04/15 06:35:55;;;;;;;1.25;0.65;;;25.10;58.10;;;;;;5199397;22;20064;-64
2023/04/15 06:38:17;;;;;;;1.90;0.90;;;25.10;58.30;;;;;;5166339;22;20012;-64
2023/04/15 06:40:39;;;;;;;1.38;0.80;;;25.10;58.40;;;;;;5198734;22;20409;-66
2023/04/15 06:43:03;;;;;;;1.63;0.77;;;25.00;58.40;;;;;;5198275;22;20428;-65
2023/04/15 06:45:26;;;;;;;1.15;1.02;;;25.00;58.60;;;;;;5188030;22;20463;-65
2023/04/15 06:47:48;;;;;;;3.08;1.08;;;24.90;58.60;;;;;;5197620;22;20023;-64
2023/04/15 06:50:11;;;;;;;2.25;0.90;;;24.90;58.70;;;;;;5199337;22;20035;-63
2023/04/15 06:52:33;;;;;;;1.38;0.82;;;24.90;58.80;;;;;;5196437;22;20019;-64
2023/04/15 06:54:56;;;;;;;1.95;1.00;;;24.80;58.90;;;;;;5199350;22;20047;-64
2023/04/15 06:57:18;;;;;;;1.30;0.82;;;24.80;59.00;;;;;;5195686;22;20096;-63
2023/04/15 06:59:41;;;;;;;2.35;0.90;;;24.80;59.00;;;;;;5198407;22;20012;-63
2023/04/15 07:02:04;;;;;;;1.63;1.20;;;24.80;59.20;;;;;;5196575;22;20012;-65
2023/04/15 07:04:26;;;;;;;3.00;1.15;;;24.80;59.20;;;;;;5197712;22;20352;-64
2023/04/15 07:06:49;;;;;;;2.53;1.10;;;24.80;59.20;;;;;;5199125;22;20021;-65
2023/04/15 07:09:12;;;;;;;0.98;0.70;;;24.70;59.20;;;;;;5196520;22;20016;-64
2023/04/15 07:11:35;;;;;;;2.17;1.00;;;24.70;59.20;;;;;;5195967;22;20058;-67
2023/04/15 07:14:00;;;;;;;1.33;0.82;;;24.70;59.30;;;;;;5196353;22;20016;-64
2023/04/15 07:16:23;;;;;;;1.55;0.90;;;24.60;59.40;;;;;;5197309;22;20043;-67
2023/04/15 07:18:45;;;;;;;0.95;0.60;;;24.70;59.40;;;;;;5197820;22;20122;-66
2023/04/15 07:21:08;;;;;;;1.95;0.93;;;24.60;59.50;;;;;;5197777;22;20443;-67
2023/04/15 07:23:31;;;;;;;2.75;0.80;;;24.60;59.60;;;;;;5165242;22;20012;-66
2023/04/15 07:25:53;;;;;;;1.48;0.80;;;24.60;59.60;;;;;;5164266;22;20450;-66
2023/04/15 07:28:15;;;;;;;1.48;1.08;;;24.60;59.70;;;;;;5166120;22;20092;-65
2023/04/15 07:30:38;;;;;;;1.77;0.88;;;24.60;59.70;;;;;;5198283;22;20050;-68
2023/04/15 07:33:01;;;;;;;1.42;0.90;;;24.50;59.80;;;;;;5195431;22;20161;-67
2023/04/15 07:35:25;;;;;;;3.10;1.05;;;24.60;59.90;;;;;;5196204;22;20007;-64
2023/04/15 07:37:48;;;;;;;2.92;1.00;;;24.60;60.00;;;;;;5195775;22;20016;-67
2023/04/15 07:40:11;;;;;;;1.75;0.82;;;24.50;60.00;;;;;;5197413;22;20007;-67
2023/04/15 07:42:34;;;;;;;2.28;1.02;;;24.50;60.10;;;;;;5197033;22;20023;-67
2023/04/15 07:44:57;;;;;;;2.17;1.38;;;24.50;60.10;;;;;;5197994;22;20019;-67
2023/04/15 07:47:20;;;;;;;2.25;1.00;;;24.50;60.20;;;;;;5198604;22;20018;-67
2023/04/15 07:49:43;;;;;;;2.13;1.10;;;24.40;60.20;;;;;;5197740;22;20026;-67
2023/04/15 07:52:05;;;;;;;2.45;1.13;;;24.40;60.20;;;;;;5164809;22;20023;-64
2023/04/15 07:54:27;;;;;;;1.75;1.00;;;24.40;60.40;;;;;;5166741;22;20065;-66
2023/04/15 07:56:50;;;;;;;2.50;1.25;;;24.40;60.40;;;;;;5197726;22;20023;-66
2023/04/15 07:59:14;;;;;;;2.28;1.30;;;24.40;60.50;;;;;;5198576;22;20018;-67
2023/04/15 08:01:35;;;;;;;;;;;24.40;60.60;;;;;;5197228;22;20468;-67
2023/04/15 08:04:01;;;;;;;1.85;0.93;;;24.40;60.50;;;;;;5196989;22;19913;-68
2023/04/15 08:06:24;;;;;;;1.38;0.90;;;24.40;60.60;;;;;;5197914;22;20011;-66
2023/04/15 08:08:47;;;;;;;5.40;1.63;;;24.40;60.60;;;;;;5199022;22;20020;-67
2023/04/15 08:11:09;;;;;;;1.65;1.05;;;24.40;60.70;;;;;;5196760;22;20020;-66
2023/04/15 08:13:32;;;;;;;1.92;1.00;;;24.40;60.80;;;;;;5197032;22;20011;-67
2023/04/15 08:16:18;;;;;;;1.88;1.08;;;24.40;60.80;;;;;;5199051;22;20073;-67
2023/04/15 08:18:40;;;;;;;2.50;1.02;;;24.40;61.10;;;;;;5198055;22;20532;-67
2023/04/15 08:21:03;;;;;;;2.42;1.30;;;24.30;60.80;;;;;;5188535;22;20118;-67
2023/04/15 08:23:25;;;;;;;2.50;1.23;;;24.30;60.90;;;;;;5199277;22;20518;-67
2023/04/15 08:25:48;;;;;;;2.60;1.13;;;24.30;61.00;;;;;;5198672;22;20019;-67
2023/04/15 08:28:10;;;;;;;2.13;1.17;;;24.30;61.10;;;;;;5197253;22;20012;-66
2023/04/15 08:30:33;;;;;;;2.60;1.08;;;24.30;61.10;;;;;;5198580;22;20024;-66
2023/04/15 08:32:55;;;;;;;2.30;1.10;;;24.30;61.10;;;;;;5197126;22;20018;-66
2023/04/15 08:35:18;;;;;;;1.60;1.13;;;24.30;61.10;;;;;;5196972;22;20456;-66
2023/04/15 08:37:41;;;;;;;3.20;1.58;;;24.30;61.20;;;;;;5166235;22;20365;-67
2023/04/15 08:40:04;;;;;;;2.15;1.10;;;24.20;61.20;;;;;;5184403;22;20514;-66
2023/04/15 08:42:48;;;;;;;2.90;1.30;;;24.20;61.30;;;;;;5198448;22;20520;-66
2023/04/15 08:45:11;;;;;;;2.47;1.20;;;24.20;61.40;;;;;;5189055;22;20011;-66
2023/04/15 08:47:34;;;;;;;2.05;1.10;;;24.20;61.30;;;;;;5198711;22;20131;-66
2023/04/15 08:49:58;;;;;;;4.60;1.67;;;24.20;61.40;;;;;;5198500;22;20108;-65
2023/04/15 08:52:21;;;;;;;2.05;1.40;;;24.20;61.40;;;;;;5196996;22;20031;-66
2023/04/15 08:54:44;;;;;;;3.75;1.35;;;24.20;61.40;;;;;;5196695;22;20443;-65
2023/04/15 08:57:06;;;;;;;2.53;1.15;;;24.20;61.50;;;;;;5195283;22;20008;-65
2023/04/15 08:59:30;;;;;;;2.50;1.27;;;24.20;61.50;;;;;;5198475;22;20039;-66
2023/04/15 09:01:54;;;;;;;1.98;1.20;;;24.20;61.60;;;;;;5187632;22;20094;-66
2023/04/15 09:04:17;;;;;;;3.72;1.77;;;24.20;61.60;;;;;;5196593;22;20314;-66
2023/04/15 09:06:40;;;;;;;2.38;1.23;;;24.20;61.70;;;;;;5198997;22;20023;-66
2023/04/15 09:09:02;;;;;;;3.30;1.10;;;24.20;61.70;;;;;;5197371;22;20302;-66
2023/04/15 09:11:25;;;;;;;2.63;1.27;;;24.20;61.70;;;;;;5196430;22;20574;-67
2023/04/15 09:13:49;;;;;;;2.33;1.10;;;24.20;61.70;;;;;;5186131;22;20007;-66
2023/04/15 09:16:14;;;;;;;3.28;1.40;;;24.20;61.80;;;;;;5163179;22;20249;-66
2023/04/15 09:18:37;;;;;;;5.05;1.40;;;24.20;61.70;;;;;;5188064;22;20018;-66
2023/04/15 09:21:07;;;;;;;2.40;1.23;;;24.20;61.90;;;;;;5176933;22;20073;-66
2023/04/15 09:23:30;;;;;;;2.55;1.30;;;24.10;61.90;;;;;;5189109;22;20073;-67
2023/04/15 09:25:52;;;;;;;2.05;0.90;;;24.10;62.00;;;;;;5188648;22;20336;-67
2023/04/15 09:28:22;;;;;;;2.08;1.20;;;24.10;62.00;;;;;;5190600;22;20712;-67
2023/04/15 09:30:46;;;;;;;1.55;0.95;;;24.10;62.00;;;;;;5188278;22;20015;-67
2023/04/15 09:33:09;;;;;;;;;;;24.10;62.00;;;;;;5189597;22;20015;-67
2023/04/15 09:35:32;;;;;;;2.85;1.10;;;24.10;62.00;;;;;;5158115;22;20355;-67
2023/04/15 09:38:06;;;;;;;2.38;1.30;;;24.10;62.10;;;;;;5190299;22;20016;-67
2023/04/15 09:40:39;;;;;;;2.15;0.98;;;24.10;62.10;;;;;;5188629;22;20019;-67
2023/04/15 09:43:03;;;;;;;2.67;1.25;;;24.10;62.10;;;;;;5186352;22;20503;-67
2023/04/15 09:45:26;;;;;;;3.55;1.20;;;24.10;62.20;;;;;;5176294;22;20015;-67
2023/04/15 09:47:51;;;;;;;1.92;1.00;;;24.10;62.10;;;;;;5191144;22;20012;-67
2023/04/15 09:50:14;;;;;;;1.60;1.00;;;24.10;62.20;;;;;;5191134;22;20081;-67
2023/04/15 09:52:42;;;;;;;2.67;1.10;;;24.10;62.20;;;;;;5187666;22;20902;-67
2023/04/15 09:55:06;;;;;;;1.65;1.00;;;24.00;62.20;;;;;;5178669;22;20295;-67
2023/04/15 09:57:35;;;;;;;;;;;24.00;62.20;;;;;;5188393;22;20452;-66
2023/04/15 09:59:58;;;;;;;4.53;1.23;;;24.10;62.20;;;;;;5189633;22;19949;-65
2023/04/15 10:02:21;;;;;;;2.28;1.38;;;24.00;62.20;;;;;;5188492;22;20012;-67
2023/04/15 10:04:44;;;;;;;1.67;1.00;;;24.00;62.30;;;;;;5188749;22;20024;-67
2023/04/15 10:07:08;;;;;;;2.30;1.20;;;24.00;62.20;;;;;;5179420;22;20065;-66
2023/04/15 10:09:33;;;;;;;2.25;1.23;;;24.00;62.30;;;;;;5190999;22;20077;-70
2023/04/15 10:11:55;;;;;;;2.60;1.40;;;24.00;62.30;;;;;;5190032;22;20506;-67
2023/04/15 10:14:19;;;;;;;2.20;1.08;;;24.00;62.40;;;;;;5192547;22;20018;-70
2023/04/15 10:16:47;;;;;;;3.85;1.63;;;24.00;62.40;;;;;;5187942;22;20015;-67
2023/04/15 10:19:11;;;;;;;1.45;1.05;;;24.00;62.30;;;;;;5187743;22;20095;-67
2023/04/15 10:21:34;;;;;;;1.60;0.88;;;24.00;62.40;;;;;;5136700;22;20025;-67
2023/04/15 10:23:57;;;;;;;2.20;0.90;;;24.00;62.40;;;;;;5190435;22;20058;-66
2023/04/15 10:26:20;;;;;;;2.05;1.35;;;24.00;62.30;;;;;;5189890;22;20029;-65
2023/04/15 10:28:44;;;;;;;1.93;1.17;;;24.00;62.40;;;;;;5191747;22;20023;-67
2023/04/15 10:31:07;;;;;;;1.77;0.90;;;24.00;62.40;;;;;;5190002;22;20281;-67
2023/04/15 10:33:30;;;;;;;1.15;0.90;;;24.00;62.50;;;;;;5190198;22;20023;-67
2023/04/15 10:35:55;;;;;;;0.82;0.80;;;24.00;62.50;;;;;;5192496;22;20020;-66
2023/04/15 10:38:45;;;;;;;1.42;0.88;;;24.00;62.50;;;;;;5180813;22;20074;-68
2023/04/15 10:41:14;;;;;;;1.85;1.25;;;23.90;62.40;;;;;;5189638;22;20023;-67
2023/04/15 10:43:37;;;;;;;1.55;0.82;;;23.90;62.50;;;;;;5191727;22;20500;-66
2023/04/15 10:45:59;;;;;;;2.00;1.20;;;23.90;62.50;;;;;;5188847;22;20458;-67
2023/04/15 10:48:23;;;;;;;2.05;1.00;;;23.90;62.50;;;;;;5189737;22;20027;-67
2023/04/15 10:50:57;;;;;;;2.05;0.95;;;23.90;62.50;;;;;;5181232;22;20103;-66
2023/04/15 10:53:30;;;;;;;2.13;1.25;;;23.90;62.50;;;;;;5190309;22;20027;-65
2023/04/15 10:55:53;;;;;;;1.85;1.08;;;23.90;62.50;;;;;;5189071;22;20356;-66
2023/04/15 10:58:15;;;;;;;2.30;1.00;;;23.90;62.60;;;;;;5185015;22;20440;-66
2023/04/15 11:00:38;;;;;;;2.05;1.10;;;23.90;62.60;;;;;;5191097;22;20520;-66
2023/04/15 11:03:08;;;;;;;1.42;0.85;;;23.90;62.60;;;;;;5189247;22;20016;-67
2023/04/15 11:05:42;;;;;;;1.75;1.02;;;23.90;62.70;;;;;;5189150;22;20022;-66
2023/04/15 11:08:05;;;;;;;1.95;1.10;;;23.90;62.70;;;;;;5189064;22;20065;-67
2023/04/15 11:10:30;;;;;;;1.35;0.90;;;23.90;62.70;;;;;;5190035;22;20402;-67
2023/04/15 11:12:57;;;;;;;1.25;0.95;;;23.90;63.00;;;;;;5190097;22;20486;-67
2023/04/15 11:15:39;;;;;;;1.33;0.98;;;23.90;62.80;;;;;;5188837;22;20007;-67
2023/04/15 11:18:16;;;;;;;1.92;1.20;;;23.90;62.80;;;;;;5177043;22;20023;-67
2023/04/15 11:20:41;;;;;;;1.85;1.17;;;23.80;62.80;;;;;;5157699;22;20020;-69
2023/04/15 11:23:04;;;;;;;1.25;0.98;;;23.80;62.90;;;;;;5189893;22;20051;-68
2023/04/15 11:25:29;;;;;;;2.65;1.08;;;23.90;62.90;;;;;;5191127;22;20075;-67
2023/04/15 11:27:53;;;;;;;2.20;1.13;;;23.80;62.90;;;;;;5188776;22;20016;-66
2023/04/15 11:30:24;;;;;;;2.35;1.40;;;23.80;62.90;;;;;;5189614;22;20019;-65
2023/04/15 11:32:47;;;;;;;2.22;1.20;;;23.80;62.90;;;;;;5189282;22;20023;-67
2023/04/15 11:35:10;;;;;;;2.17;1.00;;;23.80;62.90;;;;;;5188469;22;20015;-68
2023/04/15 11:37:32;;;;;;;1.02;0.90;;;23.80;63.00;;;;;;5189892;22;20011;-65
2023/04/15 11:39:55;;;;;;;1.55;0.98;;;23.80;62.90;;;;;;5190423;22;20509;-66
2023/04/15 11:42:18;;;;;;;1.43;0.87;;;23.90;63.00;;;;;;5190588;22;20016;-65
2023/04/15 11:44:40;;;;;;;1.50;1.10;;;23.80;63.00;;;;;;5179970;22;20414;-66
2023/04/15 11:47:24;;;;;;;1.05;0.70;;;23.80;63.00;;;;;;5190151;22;20045;-65
2023/04/15 11:49:47;;;;;;;1.50;0.90;;;23.80;63.00;;;;;;5189521;22;20015;-66
2023/04/15 11:52:12;;;;;;;1.67;0.80;;;23.80;63.00;;;;;;5191100;22;20030;-66
2023/04/15 11:54:36;;;;;;;2.45;1.10;;;23.80;63.10;;;;;;5191077;22;20134;-67
2023/04/15 11:57:00;;;;;;;2.03;0.98;;;23.80;63.10;;;;;;5188442;22;20364;-65
2023/04/15 11:59:23;;;;;;;1.90;1.13;;;23.80;63.10;;;;;;5187977;22;20016;-68
2023/04/15 12:01:46;;;;;;;2.35;1.13;;;23.80;63.10;;;;;;5188441;22;20738;-65
2023/04/15 12:04:13;;;;;;;2.28;0.90;;;23.80;63.10;;;;;;5188261;22;20014;-69
2023/04/15 12:06:37;;;;;;;1.42;0.80;;;23.80;63.20;;;;;;5157812;22;20357;-67
2023/04/15 12:09:05;;;;;;;;;;;23.80;63.20;;;;;;5187544;22;20523;-68
2023/04/15 12:11:37;;;;;;;1.10;0.88;;;23.80;63.20;;;;;;5190056;22;20338;-66
2023/04/15 12:14:09;;;;;;;1.90;1.00;;;23.80;63.20;;;;;;5190967;22;20019;-66
2023/04/15 12:16:33;;;;;;;1.27;0.90;;;23.80;63.20;;;;;;5159066;22;20391;-67
2023/04/15 12:19:00;;;;;;;1.75;1.08;;;23.80;63.20;;;;;;5190958;22;20098;-66
2023/04/15 12:21:23;;;;;;;1.30;0.80;;;23.70;63.20;;;;;;5189994;22;20615;-66
2023/04/15 12:23:56;;;;;;;1.13;0.90;;;23.80;63.20;;;;;;5188020;22;20088;-68
2023/04/15 12:26:31;;;;;;;1.45;0.80;;;23.70;63.20;;;;;;5188585;22;20065;-66
2023/04/15 12:29:03;;;;;;;1.42;0.82;;;23.80;63.20;;;;;;5189437;22;20019;-67
2023/04/15 12:31:26;;;;;;;1.88;1.08;;;23.70;63.30;;;;;;5188772;22;20027;-66
2023/04/15 12:33:48;;;;;;;1.20;0.93;;;23.70;63.30;;;;;;5188922;22;20015;-64
2023/04/15 12:36:11;;;;;;;1.40;0.88;;;23.70;63.20;;;;;;5190413;22;20126;-66
2023/04/15 12:38:33;;;;;;;1.35;0.88;;;23.70;63.30;;;;;;5186297;22;20015;-65